createdAt,value
2017-08-04T00:02:17.024Z,6.13
2017-08-04T00:04:45.302Z,5.30
2017-08-04T00:07:13.580Z,5.40
2017-08-04T00:09:42.258Z,4.83
2017-08-04T00:12:10.534Z,5.00
2017-08-04T00:14:38.806Z,5.13
2017-08-04T00:17:07.104Z,5.53
2017-08-04T00:19:35.417Z,4.80
2017-08-04T00:22:05.368Z,5.00
2017-08-04T00:24:33.708Z,5.30
2017-08-04T00:27:01.994Z,5.20
2017-08-04T00:29:30.303Z,4.50
2017-08-04T00:31:58.575Z,6.80
2017-08-04T00:34:27.133Z,5.67
2017-08-04T00:36:55.443Z,5.30
2017-08-04T00:39:24.505Z,5.00
2017-08-04T00:41:52.898Z,4.77
2017-08-04T00:44:21.372Z,5.20
2017-08-04T00:46:49.952Z,5.00
2017-08-04T00:49:18.265Z,4.50
2017-08-04T00:51:48.299Z,5.33
2017-08-04T00:54:16.650Z,5.50
2017-08-04T00:56:45.040Z,5.00
2017-08-04T00:59:13.522Z,5.10
2017-08-04T01:01:41.837Z,4.93
2017-08-04T01:04:10.917Z,5.20
2017-08-04T01:06:39.201Z,4.83
2017-08-04T01:09:07.576Z,5.30
2017-08-04T01:11:36.150Z,5.57
2017-08-04T01:14:08.132Z,5.10
2017-08-04T01:16:36.611Z,5.53
2017-08-04T01:19:04.915Z,5.13
2017-08-04T01:21:33.994Z,5.43
2017-08-04T01:24:02.333Z,5.20
2017-08-04T01:26:30.601Z,6.23
2017-08-04T01:28:59.244Z,5.13
2017-08-04T01:31:28.050Z,5.43
2017-08-04T01:33:56.419Z,5.67
2017-08-04T01:36:24.692Z,4.53
2017-08-04T01:38:53.553Z,5.40
2017-08-04T01:41:21.956Z,5.97
2017-08-04T01:43:50.729Z,6.80
2017-08-04T01:46:19.018Z,5.80
2017-08-04T01:48:47.387Z,6.17
2017-08-04T01:51:16.452Z,5.10
2017-08-04T01:53:44.897Z,5.07
2017-08-04T01:56:13.195Z,4.73
2017-08-04T01:58:41.480Z,4.93
2017-08-04T02:01:09.795Z,4.37
2017-08-04T02:03:38.099Z,5.13
2017-08-04T02:06:06.748Z,4.10
2017-08-04T02:08:35.024Z,4.90
2017-08-04T02:11:03.352Z,4.77
2017-08-04T02:13:31.691Z,5.40
2017-08-04T02:15:59.995Z,5.23
2017-08-04T02:18:28.635Z,5.10
2017-08-04T02:20:56.932Z,5.60
2017-08-04T02:23:25.223Z,4.90
2017-08-04T02:25:53.606Z,4.73
2017-08-04T02:28:25.085Z,4.80
2017-08-04T02:30:54.448Z,5.77
2017-08-04T02:33:22.744Z,5.47
2017-08-04T02:35:51.114Z,6.23
2017-08-04T02:38:19.408Z,5.80
2017-08-04T02:40:47.696Z,6.17
2017-08-04T02:43:16.162Z,5.60
2017-08-04T02:45:44.456Z,4.93
2017-08-04T02:48:12.753Z,4.70
2017-08-04T02:50:41.073Z,4.90
2017-08-04T02:53:09.430Z,5.20
2017-08-04T02:55:39.549Z,4.97
2017-08-04T02:58:07.826Z,4.73
2017-08-04T03:00:36.890Z,4.40
2017-08-04T03:03:05.174Z,4.50
2017-08-04T03:05:33.470Z,4.33
2017-08-04T03:08:02.128Z,5.17
2017-08-04T03:10:30.403Z,6.60
2017-08-04T03:13:00.183Z,5.20
2017-08-04T03:15:29.272Z,5.77
2017-08-04T03:17:58.142Z,4.53
2017-08-04T03:20:26.569Z,5.40
2017-08-04T03:22:55.911Z,5.43
2017-08-04T03:25:24.172Z,6.03
2017-08-04T03:27:52.493Z,5.60
2017-08-04T03:30:20.792Z,5.60
2017-08-04T03:32:49.264Z,7.23
2017-08-04T03:35:17.544Z,5.90
2017-08-04T03:37:45.835Z,5.83
2017-08-04T03:40:14.210Z,6.17
2017-08-04T03:42:42.525Z,5.97
2017-08-04T03:45:12.708Z,6.00
2017-08-04T03:47:40.979Z,6.60
2017-08-04T03:50:09.292Z,6.87
2017-08-04T03:52:37.652Z,7.43
2017-08-04T03:55:05.923Z,7.00
2017-08-04T03:57:34.550Z,8.20
2017-08-04T04:00:02.934Z,9.23
2017-08-04T04:02:31.194Z,6.70
2017-08-04T04:04:59.509Z,6.70
2017-08-04T04:07:27.858Z,7.27
2017-08-04T04:09:56.525Z,6.53
2017-08-04T04:12:25.318Z,6.20
2017-08-04T04:14:53.630Z,7.30
2017-08-04T04:17:22.209Z,6.23
2017-08-04T04:19:50.487Z,6.37
2017-08-04T04:22:18.780Z,6.43
2017-08-04T04:24:47.080Z,6.13
2017-08-04T04:27:16.279Z,5.40
2017-08-04T04:29:44.553Z,6.20
2017-08-04T04:32:12.840Z,5.33
2017-08-04T04:34:41.125Z,6.33
2017-08-04T04:37:09.804Z,6.63
2017-08-04T04:39:38.089Z,6.37
2017-08-04T04:42:07.349Z,5.40
2017-08-04T04:44:35.657Z,5.80
2017-08-04T04:47:03.971Z,5.67
2017-08-04T04:49:32.457Z,5.63
2017-08-04T04:52:00.760Z,5.07
2017-08-04T04:54:31.114Z,4.83
2017-08-04T04:56:59.438Z,5.17
2017-08-04T04:59:27.723Z,4.00
2017-08-04T05:01:56.341Z,4.90
2017-08-04T05:04:25.515Z,4.60
2017-08-04T05:06:53.792Z,5.13
2017-08-04T05:09:22.302Z,4.63
2017-08-04T05:11:51.371Z,4.20
2017-08-04T05:14:20.011Z,4.63
2017-08-04T05:16:49.052Z,4.77
2017-08-04T05:19:17.358Z,4.03
2017-08-04T05:21:46.032Z,4.17
2017-08-04T05:24:14.341Z,5.07
2017-08-04T05:26:43.723Z,5.17
2017-08-04T05:29:12.574Z,5.07
2017-08-04T05:31:40.892Z,4.23
2017-08-04T05:34:09.882Z,4.57
2017-08-04T05:36:38.172Z,4.23
2017-08-04T05:39:07.531Z,5.10
2017-08-04T05:41:35.884Z,4.10
2017-08-04T05:44:04.922Z,3.57
2017-08-04T05:46:34.477Z,3.07
2017-08-04T05:49:04.008Z,3.73
2017-08-04T05:51:34.685Z,3.50
2017-08-04T05:54:03.889Z,2.97
2017-08-04T05:56:32.197Z,3.57
2017-08-04T05:59:00.473Z,3.07
2017-08-04T06:01:28.907Z,4.23
2017-08-04T06:03:58.248Z,3.20
2017-08-04T06:06:26.574Z,3.13
2017-08-04T06:08:54.892Z,4.60
2017-08-04T06:11:23.196Z,3.10
2017-08-04T06:13:51.507Z,3.20
2017-08-04T06:16:20.204Z,4.67
2017-08-04T06:18:48.519Z,2.87
2017-08-04T06:21:17.838Z,3.83
2017-08-04T06:23:46.194Z,3.90
2017-08-04T06:26:15.864Z,3.10
2017-08-04T06:28:44.464Z,3.80
2017-08-04T06:31:12.747Z,3.17
2017-08-04T06:33:41.873Z,3.80
2017-08-04T06:36:10.328Z,4.00
2017-08-04T06:38:38.624Z,3.10
2017-08-04T06:41:07.559Z,4.10
2017-08-04T06:43:35.992Z,3.07
2017-08-04T06:46:04.297Z,3.63
2017-08-04T06:48:44.496Z,3.70
2017-08-04T06:51:24.683Z,4.63
2017-08-04T06:54:13.716Z,3.30
2017-08-04T06:56:43.150Z,3.33
2017-08-04T06:59:12.051Z,3.97
2017-08-04T07:01:40.377Z,3.70
2017-08-04T07:04:08.668Z,3.57
2017-08-04T07:06:37.011Z,3.53
2017-08-04T07:09:05.312Z,3.30
2017-08-04T07:11:34.867Z,4.90
2017-08-04T07:14:03.162Z,3.03
2017-08-04T07:16:31.428Z,3.60
2017-08-04T07:18:59.714Z,3.10
2017-08-04T07:21:28.002Z,4.27
2017-08-04T07:23:56.596Z,3.70
2017-08-04T07:26:24.900Z,3.00
2017-08-04T07:28:54.692Z,3.80
2017-08-04T07:31:23.065Z,3.70
2017-08-04T07:33:51.373Z,4.00
2017-08-04T07:36:24.885Z,2.50
2017-08-04T07:38:54.303Z,3.17
2017-08-04T07:41:22.698Z,3.30
2017-08-04T07:43:51.014Z,3.77
2017-08-04T07:46:19.288Z,3.30
2017-08-04T07:48:47.885Z,4.17
2017-08-04T07:51:16.162Z,2.90
2017-08-04T07:53:44.451Z,3.30
2017-08-04T07:56:12.783Z,3.67
2017-08-04T07:58:41.922Z,3.80
2017-08-04T08:01:10.604Z,3.33
2017-08-04T08:03:38.906Z,3.80
2017-08-04T08:06:07.195Z,3.10
2017-08-04T08:08:35.598Z,3.57
2017-08-04T08:11:04.039Z,3.97
2017-08-04T08:13:32.596Z,3.60
2017-08-04T08:16:00.942Z,2.93
2017-08-04T08:18:29.266Z,3.40
2017-08-04T08:20:58.357Z,3.50
2017-08-04T08:23:26.647Z,3.33
2017-08-04T08:25:55.089Z,3.27
2017-08-04T08:28:23.401Z,2.90
2017-08-04T08:30:51.689Z,3.47
2017-08-04T08:33:20.873Z,2.87
2017-08-04T08:35:49.960Z,4.20
2017-08-04T08:38:18.565Z,2.90
2017-08-04T08:40:47.468Z,3.43
2017-08-04T08:43:15.794Z,3.10
2017-08-04T08:45:44.102Z,3.60
2017-08-04T08:48:12.400Z,3.53
2017-08-04T08:50:40.964Z,3.00
2017-08-04T08:53:09.268Z,4.60
2017-08-04T08:55:38.901Z,2.83
2017-08-04T08:58:08.441Z,4.17
2017-08-04T09:00:37.944Z,3.00
2017-08-04T09:03:08.545Z,3.50
2017-08-04T09:05:38.067Z,3.03
2017-08-04T09:08:07.583Z,3.27
2017-08-04T09:10:37.150Z,3.43
2017-08-04T09:13:06.666Z,3.20
2017-08-04T09:15:36.501Z,3.03
2017-08-04T09:18:06.037Z,3.97
2017-08-04T09:20:35.599Z,2.93
2017-08-04T09:23:06.398Z,3.57
2017-08-04T09:25:36.326Z,4.03
2017-08-04T09:28:05.928Z,3.47
2017-08-04T09:30:35.488Z,3.23
2017-08-04T09:33:05.278Z,3.63
2017-08-04T09:35:34.819Z,3.20
2017-08-04T09:38:04.360Z,3.60
2017-08-04T09:40:33.912Z,3.90
2017-08-04T09:43:03.451Z,3.03
2017-08-04T09:45:33.140Z,3.17
2017-08-04T09:48:03.568Z,3.30
2017-08-04T09:50:33.568Z,3.47
2017-08-04T09:53:03.156Z,3.40
2017-08-04T09:55:33.395Z,3.73
2017-08-04T09:58:02.961Z,4.20
2017-08-04T10:00:32.474Z,3.60
2017-08-04T10:03:02.475Z,2.80
2017-08-04T10:05:31.826Z,3.43
2017-08-04T10:08:00.901Z,3.20
2017-08-04T10:10:29.984Z,3.37
2017-08-04T10:12:58.272Z,2.30
2017-08-04T10:15:27.059Z,3.17
2017-08-04T10:17:55.384Z,2.70
2017-08-04T10:20:23.747Z,2.80
2017-08-04T10:22:52.834Z,3.10
2017-08-04T10:25:21.117Z,3.23
2017-08-04T10:27:49.710Z,3.63
2017-08-04T10:30:18.781Z,2.83
2017-08-04T10:32:47.596Z,3.43
2017-08-04T10:35:17.089Z,3.23
2017-08-04T10:37:45.427Z,2.87
2017-08-04T10:40:14.095Z,2.73
2017-08-04T10:42:42.466Z,3.67
2017-08-04T10:45:10.737Z,2.63
2017-08-04T10:47:39.125Z,2.90
2017-08-04T10:50:07.418Z,2.53
2017-08-04T10:52:36.601Z,3.37
2017-08-04T10:55:04.937Z,2.30
2017-08-04T10:57:33.223Z,2.70
2017-08-04T11:00:01.548Z,3.00
2017-08-04T11:02:29.850Z,2.17
2017-08-04T11:04:59.138Z,2.10
2017-08-04T11:07:27.452Z,2.17
2017-08-04T11:09:55.743Z,2.50
2017-08-04T11:12:25.209Z,2.03
2017-08-04T11:14:56.325Z,2.67
2017-08-04T11:17:24.933Z,2.87
2017-08-04T11:19:54.408Z,2.60
2017-08-04T11:22:22.729Z,2.07
2017-08-04T11:24:51.051Z,2.27
2017-08-04T11:27:19.340Z,3.10
2017-08-04T11:29:47.958Z,1.93
2017-08-04T11:32:16.386Z,2.33
2017-08-04T11:34:47.254Z,2.17
2017-08-04T11:37:15.561Z,2.40
2017-08-04T11:39:45.037Z,2.20
2017-08-04T11:42:15.227Z,2.07
2017-08-04T11:44:44.217Z,2.60
2017-08-04T11:47:14.126Z,2.27
2017-08-04T11:49:42.523Z,2.27
2017-08-04T11:52:10.836Z,2.40
2017-08-04T11:54:39.187Z,2.00
2017-08-04T11:57:14.319Z,2.00
2017-08-04T11:59:44.186Z,2.80
2017-08-04T12:02:12.482Z,2.87
2017-08-04T12:04:41.898Z,2.70
2017-08-04T12:07:11.746Z,3.30
2017-08-04T12:09:40.021Z,2.40
2017-08-04T12:12:08.388Z,2.90
2017-08-04T12:14:38.998Z,2.40
2017-08-04T12:17:07.371Z,2.80
2017-08-04T12:19:37.192Z,2.37
2017-08-04T12:22:07.163Z,2.40
2017-08-04T12:24:35.359Z,3.10
2017-08-04T12:27:03.687Z,2.10
2017-08-04T12:29:32.336Z,2.77
2017-08-04T12:32:01.277Z,2.87
2017-08-04T12:34:29.673Z,2.20
2017-08-04T12:36:59.155Z,2.77
2017-08-04T12:39:29.411Z,2.97
2017-08-04T12:42:00.030Z,2.10
2017-08-04T12:44:28.352Z,2.27
2017-08-04T12:46:56.693Z,2.53
2017-08-04T12:49:25.295Z,2.20
2017-08-04T12:51:54.687Z,2.50
2017-08-04T12:54:23.639Z,2.07
2017-08-04T12:56:52.721Z,3.07
2017-08-04T12:59:21.022Z,2.70
2017-08-04T13:01:49.698Z,2.90
2017-08-04T13:04:17.985Z,2.67
2017-08-04T13:06:47.809Z,2.50
2017-08-04T13:09:16.190Z,2.77
2017-08-04T13:11:46.012Z,3.50
2017-08-04T13:14:15.411Z,2.50
2017-08-04T13:16:43.719Z,2.50
2017-08-04T13:19:13.129Z,2.77
2017-08-04T13:21:41.453Z,2.50
2017-08-04T13:24:11.120Z,2.40
2017-08-04T13:26:42.326Z,2.50
2017-08-04T13:29:10.570Z,1.90
2017-08-04T13:31:39.534Z,2.20
2017-08-04T13:34:08.157Z,2.57
2017-08-04T13:36:36.490Z,2.60
2017-08-04T13:39:04.826Z,2.60
2017-08-04T13:41:34.477Z,2.23
2017-08-04T13:44:04.282Z,2.30
2017-08-04T13:46:33.599Z,2.23
2017-08-04T13:49:03.283Z,2.67
2017-08-04T13:51:31.800Z,2.03
2017-08-04T13:54:00.070Z,1.70
2017-08-04T13:56:29.914Z,2.23
2017-08-04T13:58:58.534Z,2.57
2017-08-04T14:01:26.987Z,2.40
2017-08-04T14:03:55.350Z,2.00
2017-08-04T14:06:24.815Z,2.20
2017-08-04T14:08:53.489Z,2.40
2017-08-04T14:11:22.760Z,2.30
2017-08-04T14:13:51.058Z,1.60
2017-08-04T14:16:20.674Z,2.17
2017-08-04T14:18:49.026Z,1.80
2017-08-04T14:21:17.832Z,2.33
2017-08-04T14:23:46.973Z,1.90
2017-08-04T14:26:16.019Z,2.00
2017-08-04T14:28:44.340Z,1.93
2017-08-04T14:31:13.021Z,1.70
2017-08-04T14:33:42.735Z,1.87
2017-08-04T14:36:12.087Z,2.20
2017-08-04T14:38:40.729Z,1.83
2017-08-04T14:41:09.041Z,1.80
2017-08-04T14:43:38.699Z,1.77
2017-08-04T14:46:07.553Z,2.03
2017-08-04T14:48:35.897Z,1.90
2017-08-04T14:51:04.190Z,1.10
2017-08-04T14:53:34.631Z,1.50
2017-08-04T14:56:03.702Z,1.70
2017-08-04T14:58:34.138Z,1.30
2017-08-04T15:01:03.971Z,1.40
2017-08-04T15:03:32.481Z,1.73
2017-08-04T15:06:00.808Z,1.70
2017-08-04T15:08:29.411Z,1.40
2017-08-04T15:10:57.741Z,1.60
2017-08-04T15:13:26.020Z,1.87
2017-08-04T15:15:54.625Z,1.37
2017-08-04T15:18:23.077Z,1.70
2017-08-04T15:20:53.133Z,1.30
2017-08-04T15:23:22.795Z,2.17
2017-08-04T15:25:51.886Z,1.33
2017-08-04T15:28:20.180Z,1.27
2017-08-04T15:30:49.082Z,1.30
2017-08-04T15:33:17.413Z,1.40
2017-08-04T15:35:46.848Z,1.30
2017-08-04T15:38:16.367Z,1.50
2017-08-04T15:40:44.633Z,1.37
2017-08-04T15:43:12.965Z,1.70
2017-08-04T15:45:43.862Z,1.47
2017-08-04T15:48:13.312Z,1.30
2017-08-04T15:50:41.653Z,1.47
2017-08-04T15:53:10.300Z,1.60
2017-08-04T15:55:38.861Z,1.20
2017-08-04T15:58:07.896Z,1.40
2017-08-04T16:00:37.031Z,1.30
2017-08-04T16:03:06.513Z,1.23
2017-08-04T16:05:34.833Z,1.40
2017-08-04T16:08:03.148Z,1.60
2017-08-04T16:10:32.432Z,1.30
2017-08-04T16:13:01.090Z,1.50
2017-08-04T16:15:29.432Z,1.43
2017-08-04T16:17:58.888Z,1.43
2017-08-04T16:20:27.179Z,1.83
2017-08-04T16:22:57.297Z,2.03
2017-08-04T16:25:25.588Z,2.20
2017-08-04T16:27:54.672Z,1.40
2017-08-04T16:30:23.370Z,1.30
2017-08-04T16:32:52.414Z,1.20
2017-08-04T16:35:21.883Z,1.80
2017-08-04T16:37:51.227Z,1.40
2017-08-04T16:40:19.548Z,2.17
2017-08-04T16:42:48.699Z,1.33
2017-08-04T16:45:17.146Z,1.40
2017-08-04T16:47:46.248Z,1.33
2017-08-04T16:50:14.597Z,1.20
2017-08-04T16:52:44.054Z,1.10
2017-08-04T16:55:14.541Z,1.27
2017-08-04T16:57:42.849Z,1.67
2017-08-04T17:00:11.128Z,1.50
2017-08-04T17:02:40.103Z,1.27
2017-08-04T17:05:08.404Z,1.30
2017-08-04T17:07:36.693Z,1.63
2017-08-04T17:10:06.151Z,1.50
2017-08-04T17:12:34.854Z,1.70
2017-08-04T17:15:04.216Z,2.00
2017-08-04T17:17:33.296Z,1.40
2017-08-04T17:20:01.860Z,1.50
2017-08-04T17:22:31.036Z,1.93
2017-08-04T17:24:59.364Z,1.50
2017-08-04T17:27:27.664Z,1.50
2017-08-04T17:29:56.735Z,1.63
2017-08-04T17:32:25.301Z,1.43
2017-08-04T17:34:53.915Z,1.70
2017-08-04T17:37:22.178Z,1.60
2017-08-04T17:39:50.501Z,1.50
2017-08-04T17:42:18.848Z,1.47
2017-08-04T17:44:47.492Z,1.60
2017-08-04T17:47:15.885Z,2.00
2017-08-04T17:49:44.508Z,1.40
2017-08-04T17:52:13.133Z,1.90
2017-08-04T17:54:41.600Z,2.20
2017-08-04T17:57:10.689Z,1.70
2017-08-04T17:59:39.297Z,2.17
2017-08-04T18:02:07.933Z,1.60
2017-08-04T18:04:36.202Z,1.70
2017-08-04T18:07:04.873Z,1.63
2017-08-04T18:09:35.723Z,1.60
2017-08-04T18:12:04.754Z,1.57
2017-08-04T18:14:33.688Z,2.50
2017-08-04T18:17:01.998Z,2.60
2017-08-04T18:19:31.405Z,1.90
2017-08-04T18:22:01.303Z,1.80
2017-08-04T18:24:29.979Z,1.63
2017-08-04T18:26:58.601Z,1.93
2017-08-04T18:29:28.069Z,1.83
2017-08-04T18:31:56.404Z,1.70
2017-08-04T18:34:25.785Z,1.90
2017-08-04T18:36:54.891Z,2.30
2017-08-04T18:39:23.144Z,1.90
2017-08-04T18:41:51.760Z,1.60
2017-08-04T18:44:20.081Z,2.53
2017-08-04T18:46:48.360Z,2.50
2017-08-04T18:49:16.920Z,2.23
2017-08-04T18:51:45.981Z,2.10
2017-08-04T18:54:15.515Z,2.60
2017-08-04T18:56:44.078Z,2.33
2017-08-04T18:59:12.387Z,2.03
2017-08-04T19:01:41.459Z,1.50
2017-08-04T19:04:10.062Z,2.00
2017-08-04T19:06:38.498Z,1.90
2017-08-04T19:09:06.820Z,2.00
2017-08-04T19:11:35.423Z,2.33
2017-08-04T19:14:04.483Z,2.07
2017-08-04T19:16:32.787Z,3.03
2017-08-04T19:19:01.576Z,2.23
2017-08-04T19:21:29.898Z,2.03
2017-08-04T19:23:59.059Z,2.03
2017-08-04T19:26:27.632Z,2.23
2017-08-04T19:28:55.950Z,2.00
2017-08-04T19:31:25.278Z,2.03
2017-08-04T19:33:53.930Z,2.20
2017-08-04T19:36:26.678Z,1.97
2017-08-04T19:38:56.922Z,2.17
2017-08-04T19:41:25.225Z,2.00
2017-08-04T19:43:53.500Z,2.03
2017-08-04T19:46:22.803Z,1.70
2017-08-04T19:48:51.349Z,2.10
2017-08-04T19:51:19.658Z,2.50
2017-08-04T19:53:48.311Z,2.60
2017-08-04T19:56:17.400Z,2.67
2017-08-04T19:58:49.924Z,2.13
2017-08-04T20:01:18.317Z,2.63
2017-08-04T20:03:46.621Z,2.53
2017-08-04T20:06:15.302Z,2.40
2017-08-04T20:08:43.568Z,2.37
2017-08-04T20:11:11.852Z,2.07
2017-08-04T20:13:40.419Z,1.87
2017-08-04T20:16:08.721Z,2.50
2017-08-04T20:18:37.042Z,2.30
2017-08-04T20:21:06.444Z,2.13
2017-08-04T20:23:35.641Z,2.40
2017-08-04T20:26:04.711Z,2.40
2017-08-04T20:28:33.280Z,2.23
2017-08-04T20:31:01.584Z,2.33
2017-08-04T20:33:30.504Z,1.90
2017-08-04T20:35:59.908Z,2.50
2017-08-04T20:38:28.187Z,2.27
2017-08-04T20:40:56.801Z,2.13
2017-08-04T20:43:26.143Z,2.30
2017-08-04T20:45:54.425Z,2.20
2017-08-04T20:48:22.747Z,2.07
2017-08-04T20:50:51.971Z,2.47
2017-08-04T20:53:21.058Z,2.67
2017-08-04T20:55:49.347Z,2.77
2017-08-04T20:58:18.026Z,2.70
2017-08-04T21:00:46.314Z,3.93
2017-08-04T21:03:15.352Z,3.20
2017-08-04T21:05:44.746Z,3.43
2017-08-04T21:08:13.071Z,2.47
2017-08-04T21:10:41.371Z,3.13
2017-08-04T21:13:09.934Z,2.67
2017-08-04T21:15:38.207Z,2.90
2017-08-04T21:18:06.513Z,3.00
2017-08-04T21:20:35.097Z,2.67
2017-08-04T21:23:05.450Z,2.10
2017-08-04T21:25:34.739Z,3.13
2017-08-04T21:28:04.246Z,2.50
2017-08-04T21:30:32.574Z,3.53
2017-08-04T21:33:00.888Z,2.50
2017-08-04T21:35:29.474Z,2.57
2017-08-04T21:37:58.411Z,2.60
2017-08-04T21:40:27.024Z,2.50
2017-08-04T21:42:55.657Z,2.50
2017-08-04T21:45:23.971Z,3.00
2017-08-04T21:47:52.783Z,2.63
2017-08-04T21:50:21.546Z,2.90
2017-08-04T21:52:49.806Z,3.00
2017-08-04T21:55:18.831Z,2.43
2017-08-04T21:57:47.565Z,2.67
2017-08-04T22:00:17.014Z,2.47
2017-08-04T22:02:45.324Z,3.10
2017-08-04T22:05:13.998Z,2.90
2017-08-04T22:07:42.315Z,2.50
2017-08-04T22:10:11.600Z,2.93
2017-08-04T22:12:40.973Z,3.03
2017-08-04T22:15:09.284Z,3.20
2017-08-04T22:17:37.558Z,2.47
2017-08-04T22:20:06.962Z,3.33
2017-08-04T22:22:35.224Z,2.63
2017-08-04T22:25:03.605Z,3.50
2017-08-04T22:27:32.248Z,3.47
2017-08-04T22:30:00.700Z,3.70
2017-08-04T22:32:29.724Z,3.80
2017-08-04T22:34:59.211Z,3.67
2017-08-04T22:37:27.504Z,3.37
2017-08-04T22:39:55.836Z,3.00
2017-08-04T22:42:24.392Z,3.97
2017-08-04T22:44:53.653Z,3.73
2017-08-04T22:47:21.951Z,3.40
2017-08-04T22:49:50.527Z,3.90
2017-08-04T22:52:18.867Z,4.30
2017-08-04T22:54:47.130Z,4.90
2017-08-04T22:57:15.765Z,4.07
2017-08-04T22:59:44.070Z,3.63
2017-08-04T23:02:12.705Z,4.50
2017-08-04T23:04:41.604Z,4.77
2017-08-04T23:07:09.908Z,4.50
2017-08-04T23:09:38.225Z,5.07
2017-08-04T23:12:07.579Z,5.40
2017-08-04T23:14:36.002Z,5.43
2017-08-04T23:17:04.362Z,4.87
2017-08-04T23:19:33.172Z,4.63
2017-08-04T23:22:01.430Z,4.90
2017-08-04T23:24:30.711Z,5.13
2017-08-04T23:27:00.157Z,4.80
2017-08-04T23:29:29.863Z,4.77
2017-08-04T23:31:59.179Z,4.37
2017-08-04T23:34:27.766Z,4.73
2017-08-04T23:36:56.080Z,4.37
2017-08-04T23:39:25.161Z,5.17
2017-08-04T23:41:54.689Z,4.60
2017-08-04T23:44:24.305Z,4.80
2017-08-04T23:46:53.388Z,4.50
2017-08-04T23:49:22.191Z,5.27
2017-08-04T23:51:51.361Z,4.60
2017-08-04T23:54:19.674Z,4.47
2017-08-04T23:56:50.094Z,4.27
2017-08-04T23:59:19.165Z,4.50
